createdAt,value
2018-06-15T00:00:53.564Z,1010.06
2018-06-15T00:01:53.520Z,1010.05
2018-06-15T00:02:53.477Z,1010.11
2018-06-15T00:03:53.440Z,1010.09
2018-06-15T00:04:53.391Z,1010.12
2018-06-15T00:05:53.348Z,1010.12
2018-06-15T00:06:53.304Z,1010.19
2018-06-15T00:07:53.262Z,1010.26
2018-06-15T00:08:53.218Z,1010.29
2018-06-15T00:09:53.175Z,1010.35
2018-06-15T00:10:53.132Z,1010.39
2018-06-15T00:11:53.088Z,1010.41
2018-06-15T00:12:53.046Z,1010.41
2018-06-15T00:13:53.006Z,1010.43
2018-06-15T00:14:53.010Z,1010.43
2018-06-15T00:15:52.922Z,1010.37
2018-06-15T00:16:52.873Z,1010.35
2018-06-15T00:17:52.831Z,1010.30
2018-06-15T00:18:52.787Z,1010.33
2018-06-15T00:19:52.743Z,1010.43
2018-06-15T00:20:52.703Z,1010.47
2018-06-15T00:21:52.657Z,1010.45
2018-06-15T00:22:52.614Z,1010.47
2018-06-15T00:23:52.570Z,1010.48
2018-06-15T00:24:52.527Z,1010.47
2018-06-15T00:25:52.485Z,1010.45
2018-06-15T00:26:52.442Z,1010.49
2018-06-15T00:27:52.398Z,1010.45
2018-06-15T00:28:52.355Z,1010.48
2018-06-15T00:29:52.311Z,1010.53
2018-06-15T00:30:52.269Z,1010.54
2018-06-15T00:31:52.225Z,1010.57
2018-06-15T00:32:52.182Z,1010.58
2018-06-15T00:33:52.139Z,1010.61
2018-06-15T00:34:52.096Z,1010.67
2018-06-15T00:35:52.054Z,1010.62
2018-06-15T00:36:52.009Z,1010.64
2018-06-15T00:37:51.970Z,1010.64
2018-06-15T00:38:51.928Z,1010.64
2018-06-15T00:39:51.879Z,1010.61
2018-06-15T00:40:51.836Z,1010.68
2018-06-15T00:41:51.794Z,1010.65
2018-06-15T00:42:51.750Z,1010.67
2018-06-15T00:43:51.707Z,1010.69
2018-06-15T00:44:51.668Z,1010.70
2018-06-15T00:45:51.621Z,1010.66
2018-06-15T00:46:51.578Z,1010.69
2018-06-15T00:47:51.534Z,1010.70
2018-06-15T00:48:51.510Z,1010.68
2018-06-15T00:49:51.448Z,1010.72
2018-06-15T00:50:51.406Z,1010.69
2018-06-15T00:51:51.361Z,1010.72
2018-06-15T00:52:51.318Z,1010.72
2018-06-15T00:53:51.275Z,1010.73
2018-06-15T00:54:51.236Z,1010.76
2018-06-15T00:55:51.189Z,1010.77
2018-06-15T00:56:51.145Z,1010.77
2018-06-15T00:57:51.103Z,1010.77
2018-06-15T00:58:51.059Z,1010.79
2018-06-15T00:59:51.016Z,1010.79
2018-06-15T01:00:50.973Z,1010.85
2018-06-15T01:01:50.930Z,1010.86
2018-06-15T01:02:50.888Z,1010.87
2018-06-15T01:03:50.844Z,1010.89
2018-06-15T01:04:50.800Z,1010.85
2018-06-15T01:05:50.757Z,1010.85
2018-06-15T01:06:50.714Z,1010.87
2018-06-15T01:07:50.670Z,1010.85
2018-06-15T01:08:50.628Z,1010.86
2018-06-15T01:09:50.584Z,1010.92
2018-06-15T01:10:50.544Z,1010.90
2018-06-15T01:11:50.497Z,1010.89
2018-06-15T01:12:50.456Z,1010.89
2018-06-15T01:13:50.462Z,1010.87
2018-06-15T01:14:50.368Z,1010.88
2018-06-15T01:15:50.325Z,1010.85
2018-06-15T01:16:50.281Z,1010.86
2018-06-15T01:17:50.239Z,1010.93
2018-06-15T01:18:50.195Z,1010.93
2018-06-15T01:19:50.151Z,1010.92
2018-06-15T01:20:50.109Z,1010.91
2018-06-15T01:21:50.067Z,1010.92
2018-06-15T01:22:50.023Z,1010.92
2018-06-15T01:23:49.979Z,1010.91
2018-06-15T01:24:49.986Z,1010.93
2018-06-15T01:25:49.896Z,1010.95
2018-06-15T01:26:49.852Z,1011.00
2018-06-15T01:27:49.806Z,1010.99
2018-06-15T01:28:49.763Z,1011.00
2018-06-15T01:29:49.720Z,1011.01
2018-06-15T01:30:49.677Z,1010.95
2018-06-15T01:31:49.633Z,1011.04
2018-06-15T01:32:49.590Z,1010.97
2018-06-15T01:33:49.548Z,1011.00
2018-06-15T01:34:49.507Z,1011.00
2018-06-15T01:35:49.461Z,1011.01
2018-06-15T01:36:49.418Z,1010.99
2018-06-15T01:37:49.375Z,1011.04
2018-06-15T01:38:49.341Z,1011.03
2018-06-15T01:39:49.288Z,1010.96
2018-06-15T01:40:49.245Z,1011.01
2018-06-15T01:41:49.204Z,1010.99
2018-06-15T01:42:49.158Z,1010.99
2018-06-15T01:43:49.115Z,1010.98
2018-06-15T01:44:49.072Z,1010.96
2018-06-15T01:45:49.029Z,1010.96
2018-06-15T01:46:48.986Z,1010.95
2018-06-15T01:47:48.942Z,1010.99
2018-06-15T01:48:48.900Z,1010.98
2018-06-15T01:49:48.858Z,1010.90
2018-06-15T01:50:48.813Z,1010.97
2018-06-15T01:51:48.769Z,1010.99
2018-06-15T01:52:48.726Z,1010.98
2018-06-15T01:53:48.683Z,1010.91
2018-06-15T01:54:48.643Z,1010.92
2018-06-15T01:55:48.597Z,1010.93
2018-06-15T01:56:48.553Z,1010.92
2018-06-15T01:57:48.510Z,1010.93
2018-06-15T01:58:48.467Z,1010.92
2018-06-15T01:59:48.424Z,1010.90
2018-06-15T02:00:48.380Z,1010.97
2018-06-15T02:01:48.338Z,1010.94
2018-06-15T02:02:48.294Z,1010.96
2018-06-15T02:03:48.250Z,1010.95
2018-06-15T02:04:48.207Z,1010.94
2018-06-15T02:05:48.164Z,1010.96
2018-06-15T02:06:48.121Z,1010.97
2018-06-15T02:07:48.129Z,1010.97
2018-06-15T02:08:48.034Z,1010.97
2018-06-15T02:09:47.991Z,1011.01
2018-06-15T02:10:47.948Z,1011.02
2018-06-15T02:11:47.909Z,1011.01
2018-06-15T02:12:47.861Z,1011.04
2018-06-15T02:13:47.869Z,1011.00
2018-06-15T02:14:47.777Z,1011.01
2018-06-15T02:15:47.732Z,1011.02
2018-06-15T02:16:47.689Z,1011.03
2018-06-15T02:17:47.646Z,1011.02
2018-06-15T02:18:47.602Z,1011.02
2018-06-15T02:19:47.562Z,1011.01
2018-06-15T02:20:47.516Z,1011.00
2018-06-15T02:21:47.472Z,1011.00
2018-06-15T02:22:47.430Z,1011.06
2018-06-15T02:23:47.386Z,1011.02
2018-06-15T02:24:47.342Z,1011.07
2018-06-15T02:25:47.300Z,1011.06
2018-06-15T02:26:47.256Z,1011.06
2018-06-15T02:27:47.213Z,1011.07
2018-06-15T02:28:47.170Z,1011.07
2018-06-15T02:29:47.126Z,1011.02
2018-06-15T02:30:47.083Z,1011.03
2018-06-15T02:31:47.041Z,1011.07
2018-06-15T02:32:46.997Z,1011.06
2018-06-15T02:33:46.957Z,1011.10
2018-06-15T02:34:46.936Z,1011.07
2018-06-15T02:35:46.867Z,1011.11
2018-06-15T02:36:46.829Z,1011.09
2018-06-15T02:37:46.781Z,1011.10
2018-06-15T02:38:46.738Z,1011.15
2018-06-15T02:39:46.693Z,1011.13
2018-06-15T02:40:46.653Z,1011.15
2018-06-15T02:41:46.610Z,1011.14
2018-06-15T02:42:46.564Z,1011.17
2018-06-15T02:43:46.521Z,1011.17
2018-06-15T02:44:46.477Z,1011.18
2018-06-15T02:45:46.434Z,1011.17
2018-06-15T02:46:46.391Z,1011.22
2018-06-15T02:47:46.350Z,1011.21
2018-06-15T02:48:46.304Z,1011.18
2018-06-15T02:49:46.261Z,1011.20
2018-06-15T02:50:46.218Z,1011.15
2018-06-15T02:51:46.174Z,1011.19
2018-06-15T02:52:46.131Z,1011.19
2018-06-15T02:53:46.089Z,1011.20
2018-06-15T02:54:46.046Z,1011.20
2018-06-15T02:55:46.001Z,1011.21
2018-06-15T02:56:45.961Z,1011.21
2018-06-15T02:57:45.914Z,1011.23
2018-06-15T02:58:45.871Z,1011.24
2018-06-15T02:59:45.827Z,1011.25
2018-06-15T03:00:45.784Z,1011.26
2018-06-15T03:01:45.741Z,1011.23
2018-06-15T03:02:45.701Z,1011.24
2018-06-15T03:03:45.654Z,1011.26
2018-06-15T03:04:45.612Z,1011.27
2018-06-15T03:05:45.569Z,1011.23
2018-06-15T03:06:45.525Z,1011.24
2018-06-15T03:07:45.482Z,1011.23
2018-06-15T03:08:45.438Z,1011.26
2018-06-15T03:09:45.395Z,1011.25
2018-06-15T03:10:45.352Z,1011.27
2018-06-15T03:11:45.307Z,1011.26
2018-06-15T03:12:45.317Z,1011.32
2018-06-15T03:13:45.222Z,1011.32
2018-06-15T03:14:45.178Z,1011.33
2018-06-15T03:15:45.135Z,1011.36
2018-06-15T03:16:45.093Z,1011.41
2018-06-15T03:17:45.048Z,1011.39
2018-06-15T03:18:45.005Z,1011.37
2018-06-15T03:19:44.961Z,1011.43
2018-06-15T03:20:44.918Z,1011.43
2018-06-15T03:21:44.875Z,1011.44
2018-06-15T03:22:44.834Z,1011.43
2018-06-15T03:23:44.787Z,1011.44
2018-06-15T03:24:44.749Z,1011.44
2018-06-15T03:25:44.702Z,1011.43
2018-06-15T03:26:44.659Z,1011.44
2018-06-15T03:27:44.618Z,1011.44
2018-06-15T03:28:44.571Z,1011.43
2018-06-15T03:29:44.529Z,1011.42
2018-06-15T03:30:44.487Z,1011.44
2018-06-15T03:31:44.446Z,1011.46
2018-06-15T03:32:44.398Z,1011.42
2018-06-15T03:33:44.355Z,1011.43
2018-06-15T03:34:44.312Z,1011.44
2018-06-15T03:35:44.268Z,1011.44
2018-06-15T03:36:44.224Z,1011.43
2018-06-15T03:37:44.182Z,1011.42
2018-06-15T03:38:44.139Z,1011.39
2018-06-15T03:39:44.098Z,1011.42
2018-06-15T03:40:44.051Z,1011.42
2018-06-15T03:41:44.008Z,1011.41
2018-06-15T03:42:43.965Z,1011.40
2018-06-15T03:43:43.951Z,1011.42
2018-06-15T03:44:43.877Z,1011.38
2018-06-15T03:45:43.835Z,1011.40
2018-06-15T03:46:43.792Z,1011.43
2018-06-15T03:47:43.747Z,1011.43
2018-06-15T03:48:43.705Z,1011.41
2018-06-15T03:49:43.661Z,1011.39
2018-06-15T03:50:43.619Z,1011.41
2018-06-15T03:51:43.575Z,1011.45
2018-06-15T03:52:43.531Z,1011.44
2018-06-15T03:53:43.488Z,1011.46
2018-06-15T03:54:43.445Z,1011.45
2018-06-15T03:55:43.401Z,1011.47
2018-06-15T03:56:43.358Z,1011.48
2018-06-15T03:57:43.318Z,1011.48
2018-06-15T03:58:43.272Z,1011.48
2018-06-15T03:59:43.228Z,1011.49
2018-06-15T04:00:43.185Z,1011.47
2018-06-15T04:01:43.146Z,1011.50
2018-06-15T04:02:43.099Z,1011.51
2018-06-15T04:03:43.054Z,1011.48
2018-06-15T04:04:43.011Z,1011.51
2018-06-15T04:05:42.968Z,1011.51
2018-06-15T04:06:42.926Z,1011.53
2018-06-15T04:07:42.986Z,1011.51
2018-06-15T04:08:42.838Z,1011.50
2018-06-15T04:09:42.796Z,1011.49
2018-06-15T04:10:42.751Z,1011.52
2018-06-15T04:11:42.708Z,1011.53
2018-06-15T04:12:42.664Z,1011.54
2018-06-15T04:13:42.621Z,1011.54
2018-06-15T04:14:42.578Z,1011.54
2018-06-15T04:15:42.534Z,1011.57
2018-06-15T04:16:42.491Z,1011.55
2018-06-15T04:17:42.449Z,1011.55
2018-06-15T04:18:42.405Z,1011.53
2018-06-15T04:19:42.362Z,1011.54
2018-06-15T04:20:42.323Z,1011.54
2018-06-15T04:21:42.274Z,1011.57
2018-06-15T04:22:42.231Z,1011.58
2018-06-15T04:23:42.187Z,1011.54
2018-06-15T04:24:42.143Z,1011.56
2018-06-15T04:25:42.100Z,1011.58
2018-06-15T04:26:42.058Z,1011.57
2018-06-15T04:27:42.014Z,1011.55
2018-06-15T04:28:41.971Z,1011.58
2018-06-15T04:29:41.927Z,1011.60
2018-06-15T04:30:41.886Z,1011.60
2018-06-15T04:31:41.840Z,1011.64
2018-06-15T04:32:41.797Z,1011.64
2018-06-15T04:33:41.754Z,1011.67
2018-06-15T04:34:41.761Z,1011.67
2018-06-15T04:35:41.666Z,1011.67
2018-06-15T04:36:41.624Z,1011.65
2018-06-15T04:37:41.581Z,1011.67
2018-06-15T04:38:41.538Z,1011.66
2018-06-15T04:39:41.493Z,1011.70
2018-06-15T04:40:41.450Z,1011.69
2018-06-15T04:41:41.406Z,1011.72
2018-06-15T04:42:41.363Z,1011.73
2018-06-15T04:43:41.320Z,1011.72
2018-06-15T04:44:41.279Z,1011.73
2018-06-15T04:45:41.233Z,1011.74
2018-06-15T04:46:41.191Z,1011.74
2018-06-15T04:47:41.146Z,1011.74
2018-06-15T04:48:41.103Z,1011.77
2018-06-15T04:49:41.060Z,1011.78
2018-06-15T04:50:41.017Z,1011.76
2018-06-15T04:51:40.973Z,1011.81
2018-06-15T04:52:40.929Z,1011.77
2018-06-15T04:53:40.886Z,1011.76
2018-06-15T04:54:40.843Z,1011.76
2018-06-15T04:55:40.802Z,1011.72
2018-06-15T04:56:40.756Z,1011.76
2018-06-15T04:57:40.713Z,1011.73
2018-06-15T04:58:40.670Z,1011.74
2018-06-15T04:59:40.626Z,1011.69
2018-06-15T05:00:40.582Z,1011.70
2018-06-15T05:01:40.543Z,1011.69
2018-06-15T05:02:40.498Z,1011.70
2018-06-15T05:03:40.452Z,1011.68
2018-06-15T05:04:40.409Z,1011.70
2018-06-15T05:05:40.366Z,1011.75
2018-06-15T05:06:40.328Z,1011.77
2018-06-15T05:07:40.282Z,1011.74
2018-06-15T05:08:40.235Z,1011.76
2018-06-15T05:09:40.192Z,1011.75
2018-06-15T05:10:40.150Z,1011.74
2018-06-15T05:11:40.105Z,1011.77
2018-06-15T05:12:40.062Z,1011.80
2018-06-15T05:13:40.019Z,1011.78
2018-06-15T05:14:39.975Z,1011.82
2018-06-15T05:15:39.932Z,1011.77
2018-06-15T05:16:39.889Z,1011.79
2018-06-15T05:17:39.845Z,1011.80
2018-06-15T05:18:39.803Z,1011.79
2018-06-15T05:19:39.758Z,1011.80
2018-06-15T05:20:39.715Z,1011.83
2018-06-15T05:21:39.671Z,1011.81
2018-06-15T05:22:39.629Z,1011.82
2018-06-15T05:23:39.591Z,1011.79
2018-06-15T05:24:39.543Z,1011.82
2018-06-15T05:25:39.498Z,1011.82
2018-06-15T05:26:39.456Z,1011.84
2018-06-15T05:27:39.412Z,1011.86
2018-06-15T05:28:39.368Z,1011.90
2018-06-15T05:29:39.325Z,1011.89
2018-06-15T05:30:39.281Z,1011.93
2018-06-15T05:31:39.239Z,1011.94
2018-06-15T05:32:39.194Z,1011.91
2018-06-15T05:33:39.151Z,1011.95
2018-06-15T05:34:39.108Z,1011.93
2018-06-15T05:35:39.064Z,1011.92
2018-06-15T05:36:39.021Z,1011.93
2018-06-15T05:37:38.977Z,1011.92
2018-06-15T05:38:38.935Z,1011.92
2018-06-15T05:39:38.891Z,1011.87
2018-06-15T05:40:38.852Z,1011.91
2018-06-15T05:41:38.806Z,1011.92
2018-06-15T05:42:38.798Z,1011.90
2018-06-15T05:43:38.767Z,1011.90
2018-06-15T05:44:38.673Z,1011.90
2018-06-15T05:45:38.631Z,1011.91
2018-06-15T05:46:38.588Z,1011.91
2018-06-15T05:47:38.544Z,1011.94
2018-06-15T05:48:38.500Z,1011.96
2018-06-15T05:49:38.461Z,1011.96
2018-06-15T05:50:38.414Z,1011.97
2018-06-15T05:51:38.370Z,1011.96
2018-06-15T05:52:38.327Z,1012.00
2018-06-15T05:53:38.284Z,1012.02
2018-06-15T05:54:38.245Z,1012.03
2018-06-15T05:55:38.247Z,1012.03
2018-06-15T05:56:38.155Z,1012.02
2018-06-15T05:57:38.111Z,1012.06
2018-06-15T05:58:38.067Z,1012.10
2018-06-15T05:59:38.023Z,1012.07
2018-06-15T06:00:37.980Z,1012.08
2018-06-15T06:01:37.937Z,1012.09
2018-06-15T06:02:37.893Z,1012.08
2018-06-15T06:03:37.899Z,1012.06
2018-06-15T06:04:37.808Z,1012.08
2018-06-15T06:05:37.764Z,1012.04
2018-06-15T06:06:37.721Z,1012.07
2018-06-15T06:07:37.676Z,1012.09
2018-06-15T06:08:37.633Z,1012.09
2018-06-15T06:09:37.590Z,1012.09
2018-06-15T06:10:37.547Z,1012.08
2018-06-15T06:11:37.504Z,1012.06
2018-06-15T06:12:37.460Z,1012.07
2018-06-15T06:13:37.416Z,1012.05
2018-06-15T06:14:37.374Z,1012.08
2018-06-15T06:15:37.336Z,1012.05
2018-06-15T06:16:37.287Z,1012.06
2018-06-15T06:17:37.243Z,1012.08
2018-06-15T06:18:37.201Z,1012.07
2018-06-15T06:19:37.156Z,1012.08
2018-06-15T06:20:37.118Z,1012.09
2018-06-15T06:21:37.070Z,1012.07
2018-06-15T06:22:37.027Z,1012.09
2018-06-15T06:23:36.983Z,1012.13
2018-06-15T06:24:36.940Z,1012.13
2018-06-15T06:25:36.907Z,1012.17
2018-06-15T06:26:36.854Z,1012.15
2018-06-15T06:27:36.810Z,1012.17
2018-06-15T06:28:36.866Z,1012.22
2018-06-15T06:29:36.727Z,1012.20
2018-06-15T06:30:36.679Z,1012.23
2018-06-15T06:31:36.636Z,1012.20
2018-06-15T06:32:36.677Z,1012.24
2018-06-15T06:33:36.549Z,1012.24
2018-06-15T06:34:36.507Z,1012.28
2018-06-15T06:35:36.466Z,1012.25
2018-06-15T06:36:36.421Z,1012.28
2018-06-15T06:37:36.378Z,1012.32
2018-06-15T06:38:36.333Z,1012.32
2018-06-15T06:39:36.290Z,1012.36
2018-06-15T06:40:36.247Z,1012.34
2018-06-15T06:41:36.207Z,1012.36
2018-06-15T06:42:36.160Z,1012.32
2018-06-15T06:43:36.115Z,1012.39
2018-06-15T06:44:36.072Z,1012.37
2018-06-15T06:45:36.030Z,1012.36
2018-06-15T06:46:35.987Z,1012.36
2018-06-15T06:47:35.943Z,1012.42
2018-06-15T06:48:35.901Z,1012.41
2018-06-15T06:49:35.858Z,1012.42
2018-06-15T06:50:35.847Z,1012.46
2018-06-15T06:51:35.773Z,1012.46
2018-06-15T06:52:35.728Z,1012.47
2018-06-15T06:53:35.684Z,1012.51
2018-06-15T06:54:35.641Z,1012.47
2018-06-15T06:55:35.597Z,1012.45
2018-06-15T06:56:35.555Z,1012.48
2018-06-15T06:57:35.511Z,1012.50
2018-06-15T06:58:35.520Z,1012.50
2018-06-15T06:59:35.427Z,1012.48
2018-06-15T07:00:35.381Z,1012.49
2018-06-15T07:01:35.338Z,1012.51
2018-06-15T07:02:35.295Z,1012.52
2018-06-15T07:03:35.252Z,1012.51
2018-06-15T07:04:35.208Z,1012.49
2018-06-15T07:05:35.166Z,1012.51
2018-06-15T07:06:35.122Z,1012.52
2018-06-15T07:07:35.078Z,1012.54
2018-06-15T07:08:35.035Z,1012.55
2018-06-15T07:09:34.993Z,1012.56
2018-06-15T07:10:34.949Z,1012.58
2018-06-15T07:11:34.906Z,1012.59
2018-06-15T07:12:34.862Z,1012.59
2018-06-15T07:13:34.819Z,1012.60
2018-06-15T07:14:34.776Z,1012.59
2018-06-15T07:15:34.734Z,1012.65
2018-06-15T07:16:34.688Z,1012.66
2018-06-15T07:17:34.646Z,1012.67
2018-06-15T07:18:34.603Z,1012.67
2018-06-15T07:19:34.559Z,1012.71
2018-06-15T07:20:34.523Z,1012.70
2018-06-15T07:21:34.473Z,1012.68
2018-06-15T07:22:34.430Z,1012.70
2018-06-15T07:23:34.422Z,1012.69
2018-06-15T07:24:34.345Z,1012.68
2018-06-15T07:25:34.300Z,1012.66
2018-06-15T07:26:34.258Z,1012.67
2018-06-15T07:27:34.213Z,1012.66
2018-06-15T07:28:34.169Z,1012.69
2018-06-15T07:29:34.128Z,1012.67
2018-06-15T07:30:34.084Z,1012.68
2018-06-15T07:31:34.039Z,1012.72
2018-06-15T07:32:33.996Z,1012.73
2018-06-15T07:33:34.040Z,1012.76
2018-06-15T07:34:33.911Z,1012.76
2018-06-15T07:35:33.866Z,1012.79
2018-06-15T07:36:33.824Z,1012.83
2018-06-15T07:37:33.780Z,1012.84
2018-06-15T07:38:33.788Z,1012.82
2018-06-15T07:39:33.694Z,1012.83
2018-06-15T07:40:33.649Z,1012.85
2018-06-15T07:41:33.608Z,1012.84
2018-06-15T07:42:33.569Z,1012.87
2018-06-15T07:43:33.521Z,1012.87
2018-06-15T07:44:33.478Z,1012.87
2018-06-15T07:45:33.541Z,1012.89
2018-06-15T07:46:33.392Z,1012.90
2018-06-15T07:47:33.347Z,1012.89
2018-06-15T07:48:33.304Z,1012.89
2018-06-15T07:49:33.264Z,1012.96
2018-06-15T07:50:33.219Z,1012.93
2018-06-15T07:51:33.174Z,1012.95
2018-06-15T07:52:33.144Z,1012.95
2018-06-15T07:53:33.090Z,1012.96
2018-06-15T07:54:33.045Z,1012.96
2018-06-15T07:55:33.001Z,1012.95
2018-06-15T07:56:32.959Z,1012.98
2018-06-15T07:57:32.916Z,1013.02
2018-06-15T07:58:32.873Z,1012.97
2018-06-15T07:59:32.839Z,1013.01
2018-06-15T08:00:32.786Z,1013.00
2018-06-15T08:01:32.742Z,1013.00
2018-06-15T08:02:32.699Z,1012.97
2018-06-15T08:03:32.655Z,1013.01
2018-06-15T08:04:32.613Z,1013.02
2018-06-15T08:05:32.570Z,1013.02
2018-06-15T08:06:32.529Z,1013.02
2018-06-15T08:07:32.483Z,1013.02
2018-06-15T08:08:32.445Z,1013.06
2018-06-15T08:09:32.397Z,1013.04
2018-06-15T08:10:32.356Z,1013.07
2018-06-15T08:11:32.311Z,1013.08
2018-06-15T08:12:32.268Z,1013.09
2018-06-15T08:13:32.224Z,1013.07
2018-06-15T08:14:32.182Z,1013.07
2018-06-15T08:15:32.138Z,1013.08
2018-06-15T08:16:32.096Z,1013.11
2018-06-15T08:17:32.052Z,1013.08
2018-06-15T08:18:32.009Z,1013.10
2018-06-15T08:19:31.966Z,1013.07
2018-06-15T08:20:31.923Z,1013.11
2018-06-15T08:21:31.880Z,1013.15
2018-06-15T08:22:31.836Z,1013.13
2018-06-15T08:23:31.794Z,1013.13
2018-06-15T08:24:31.751Z,1013.13
2018-06-15T08:25:31.710Z,1013.13
2018-06-15T08:26:31.666Z,1013.12
2018-06-15T08:27:31.622Z,1013.11
2018-06-15T08:28:31.582Z,1013.09
2018-06-15T08:29:31.538Z,1013.14
2018-06-15T08:30:31.544Z,1013.08
2018-06-15T08:31:31.453Z,1013.08
2018-06-15T08:32:31.408Z,1013.12
2018-06-15T08:33:31.365Z,1013.13
2018-06-15T08:34:31.321Z,1013.21
2018-06-15T08:35:31.329Z,1013.22
2018-06-15T08:36:31.236Z,1013.22
2018-06-15T08:37:31.193Z,1013.11
2018-06-15T08:38:31.150Z,1013.11
2018-06-15T08:39:31.107Z,1013.09
2018-06-15T08:40:31.065Z,1013.06
2018-06-15T08:41:31.022Z,1013.10
2018-06-15T08:42:30.980Z,1013.14
2018-06-15T08:43:30.936Z,1013.21
2018-06-15T08:44:30.894Z,1013.08
2018-06-15T08:45:30.851Z,1013.07
2018-06-15T08:46:30.808Z,1013.10
2018-06-15T08:47:30.767Z,1013.24
2018-06-15T08:48:30.722Z,1013.38
2018-06-15T08:49:30.679Z,1013.76
2018-06-15T08:50:30.637Z,1014.03
2018-06-15T08:51:30.593Z,1013.94
2018-06-15T08:52:30.551Z,1014.54
2018-06-15T08:53:30.507Z,1014.59
2018-06-15T08:54:30.465Z,1014.46
2018-06-15T08:55:30.422Z,1013.41
2018-06-15T08:56:30.380Z,1013.35
2018-06-15T08:57:30.338Z,1014.05
2018-06-15T08:58:30.296Z,1013.14
2018-06-15T08:59:30.256Z,1013.09
2018-06-15T09:00:30.217Z,1013.27
2018-06-15T09:01:30.169Z,1014.29
2018-06-15T09:02:30.130Z,1013.22
2018-06-15T09:03:30.084Z,1014.60
2018-06-15T09:04:30.043Z,1014.16
2018-06-15T09:05:30.001Z,1013.78
2018-06-15T09:06:29.959Z,1013.59
2018-06-15T09:07:29.915Z,1013.26
2018-06-15T09:08:29.876Z,1013.14
2018-06-15T09:09:29.834Z,1013.12
2018-06-15T09:10:29.792Z,1013.11
2018-06-15T09:11:29.751Z,1013.06
2018-06-15T09:12:29.708Z,1013.03
2018-06-15T09:13:29.667Z,1013.07
2018-06-15T09:14:29.626Z,1013.08
2018-06-15T09:15:29.582Z,1013.03
2018-06-15T09:16:29.541Z,1013.02
2018-06-15T09:17:29.502Z,1013.00
2018-06-15T09:18:29.457Z,1013.00
2018-06-15T09:19:29.414Z,1013.03
2018-06-15T09:20:29.372Z,1013.08
2018-06-15T09:21:29.330Z,1013.03
2018-06-15T09:22:29.288Z,1013.01
2018-06-15T09:23:29.245Z,1013.01
2018-06-15T09:24:29.303Z,1013.00
2018-06-15T09:25:29.161Z,1012.99
2018-06-15T09:26:29.119Z,1012.96
2018-06-15T09:27:29.077Z,1013.00
2018-06-15T09:28:29.033Z,1012.96
2018-06-15T09:29:28.991Z,1013.01
2018-06-15T09:30:28.950Z,1013.16
2018-06-15T09:31:28.908Z,1013.29
2018-06-15T09:32:28.866Z,1013.30
2018-06-15T09:33:28.822Z,1013.19
2018-06-15T09:34:28.781Z,1013.06
2018-06-15T09:35:28.736Z,1013.18
2018-06-15T09:36:28.695Z,1013.15
2018-06-15T09:37:28.652Z,1013.08
2018-06-15T09:38:28.611Z,1013.22
2018-06-15T09:39:28.569Z,1013.24
2018-06-15T09:40:28.527Z,1013.21
2018-06-15T09:41:28.484Z,1013.13
2018-06-15T09:42:28.444Z,1013.06
2018-06-15T09:43:28.401Z,1013.03
2018-06-15T09:44:28.361Z,1013.02
2018-06-15T09:45:28.318Z,1013.06
2018-06-15T09:46:28.279Z,1013.06
2018-06-15T09:47:28.255Z,1013.07
2018-06-15T09:48:28.192Z,1013.03
2018-06-15T09:49:28.151Z,1013.03
2018-06-15T09:50:28.109Z,1013.00
2018-06-15T09:51:28.066Z,1013.00
2018-06-15T09:52:28.024Z,1013.00
2018-06-15T09:53:27.987Z,1013.01
2018-06-15T09:54:27.941Z,1013.05
2018-06-15T09:55:27.898Z,1013.05
2018-06-15T09:56:27.856Z,1013.10
2018-06-15T09:57:27.814Z,1013.10
2018-06-15T09:58:27.772Z,1013.14
2018-06-15T09:59:27.729Z,1013.11
2018-06-15T10:00:27.689Z,1013.16
2018-06-15T10:01:27.646Z,1013.15
2018-06-15T10:02:27.603Z,1013.10
2018-06-15T10:03:27.560Z,1013.09
2018-06-15T10:04:27.517Z,1013.16
2018-06-15T10:05:27.476Z,1013.19
2018-06-15T10:06:27.435Z,1013.21
2018-06-15T10:07:27.394Z,1013.13
2018-06-15T10:08:27.352Z,1013.15
2018-06-15T10:09:27.307Z,1013.13
2018-06-15T10:10:27.265Z,1013.18
2018-06-15T10:11:27.222Z,1013.21
2018-06-15T10:12:27.179Z,1013.18
2018-06-15T10:13:27.139Z,1013.17
2018-06-15T10:14:27.097Z,1013.16
2018-06-15T10:15:27.053Z,1013.13
2018-06-15T10:16:27.011Z,1013.16
2018-06-15T10:17:26.971Z,1013.15
2018-06-15T10:18:26.929Z,1013.12
2018-06-15T10:19:26.895Z,1013.10
2018-06-15T10:20:26.844Z,1013.18
2018-06-15T10:21:26.804Z,1013.16
2018-06-15T10:22:26.760Z,1013.13
2018-06-15T10:23:26.718Z,1013.15
2018-06-15T10:24:26.676Z,1013.12
2018-06-15T10:25:26.641Z,1013.12
2018-06-15T10:26:26.592Z,1013.13
2018-06-15T10:27:26.553Z,1013.15
2018-06-15T10:28:26.507Z,1013.11
2018-06-15T10:29:26.465Z,1013.17
2018-06-15T10:30:26.423Z,1013.14
2018-06-15T10:31:26.381Z,1013.11
2018-06-15T10:32:26.340Z,1013.11
2018-06-15T10:33:26.296Z,1013.12
2018-06-15T10:34:26.257Z,1013.10
2018-06-15T10:35:26.212Z,1013.09
2018-06-15T10:36:26.223Z,1013.10
2018-06-15T10:37:26.128Z,1013.09
2018-06-15T10:38:26.085Z,1013.12
2018-06-15T10:39:26.078Z,1013.08
2018-06-15T10:40:26.000Z,1013.07
2018-06-15T10:41:25.958Z,1013.07
2018-06-15T10:42:25.915Z,1013.08
2018-06-15T10:43:25.872Z,1013.09
2018-06-15T10:44:25.830Z,1013.11
2018-06-15T10:45:25.788Z,1013.12
2018-06-15T10:46:25.745Z,1013.12
2018-06-15T10:47:25.709Z,1013.07
2018-06-15T10:48:25.659Z,1013.11
2018-06-15T10:49:25.616Z,1013.09
2018-06-15T10:50:25.573Z,1013.11
2018-06-15T10:51:25.532Z,1013.14
2018-06-15T10:52:25.489Z,1013.15
2018-06-15T10:53:25.446Z,1013.15
2018-06-15T10:54:25.405Z,1013.14
2018-06-15T10:55:25.360Z,1013.11
2018-06-15T10:56:25.318Z,1013.13
2018-06-15T10:57:25.275Z,1013.09
2018-06-15T10:58:25.237Z,1013.08
2018-06-15T10:59:25.189Z,1013.11
2018-06-15T11:00:25.147Z,1013.14
2018-06-15T11:01:25.105Z,1013.14
2018-06-15T11:02:25.083Z,1013.12
2018-06-15T11:03:25.019Z,1013.15
2018-06-15T11:04:24.976Z,1013.12
2018-06-15T11:05:24.935Z,1013.10
2018-06-15T11:06:24.893Z,1013.12
2018-06-15T11:07:24.850Z,1013.09
2018-06-15T11:08:24.807Z,1013.09
2018-06-15T11:09:24.764Z,1013.06
2018-06-15T11:10:24.723Z,1013.05
2018-06-15T11:11:24.685Z,1013.04
2018-06-15T11:12:24.637Z,1013.01
2018-06-15T11:13:24.596Z,1013.00
2018-06-15T11:14:24.579Z,1013.00
2018-06-15T11:15:24.517Z,1012.99
2018-06-15T11:16:24.468Z,1013.00
2018-06-15T11:17:24.425Z,1012.96
2018-06-15T11:18:24.384Z,1012.96
2018-06-15T11:19:24.343Z,1012.90
2018-06-15T11:20:24.298Z,1012.99
2018-06-15T11:21:24.257Z,1012.99
2018-06-15T11:22:24.215Z,1013.05
2018-06-15T11:23:24.172Z,1013.09
2018-06-15T11:24:24.130Z,1013.11
2018-06-15T11:25:24.090Z,1013.08
2018-06-15T11:26:24.045Z,1013.04
2018-06-15T11:27:24.002Z,1013.02
2018-06-15T11:28:23.959Z,1012.99
2018-06-15T11:29:23.925Z,1012.96
2018-06-15T11:30:23.876Z,1012.94
2018-06-15T11:31:23.833Z,1012.98
2018-06-15T11:32:23.792Z,1013.00
2018-06-15T11:33:23.755Z,1012.99
2018-06-15T11:34:23.707Z,1012.95
2018-06-15T11:35:23.663Z,1012.94
2018-06-15T11:36:23.621Z,1012.90
2018-06-15T11:37:23.580Z,1012.93
2018-06-15T11:38:23.538Z,1012.93
2018-06-15T11:39:23.545Z,1012.88
2018-06-15T11:40:23.453Z,1012.87
2018-06-15T11:41:23.411Z,1012.88
2018-06-15T11:42:23.369Z,1012.87
2018-06-15T11:43:23.325Z,1012.88
2018-06-15T11:44:23.283Z,1012.90
2018-06-15T11:45:23.241Z,1012.90
2018-06-15T11:46:23.201Z,1012.88
2018-06-15T11:47:23.155Z,1012.90
2018-06-15T11:48:23.113Z,1012.92
2018-06-15T11:49:23.071Z,1012.94
2018-06-15T11:50:23.029Z,1012.92
2018-06-15T11:51:22.985Z,1012.89
2018-06-15T11:52:22.943Z,1012.88
2018-06-15T11:53:22.901Z,1012.87
2018-06-15T11:54:22.869Z,1012.86
2018-06-15T11:55:22.815Z,1012.83
2018-06-15T11:56:22.771Z,1012.84
2018-06-15T11:57:22.771Z,1012.84
2018-06-15T11:58:22.687Z,1012.81
2018-06-15T11:59:22.643Z,1012.81
2018-06-15T12:00:22.602Z,1012.81
2018-06-15T12:01:22.581Z,1012.83
2018-06-15T12:02:22.517Z,1012.81
2018-06-15T12:03:22.520Z,1012.81
2018-06-15T12:04:22.431Z,1012.80
2018-06-15T12:05:22.389Z,1012.82